Meteo Giornale » Osservazioni meteo Stati Uniti (USA) » Winnemucca
ore: 09:56 - Osservazioni Meteo Winnemucca
Lat. 40° 54' N Lon. 117° 48' W Alt. 1311 metri s.l.m.
23 °C
Sereno
Temp. 24 Ore
6 °C
28 °C
Nord-Est
16.7 Km/h
Dew point -2 °C
Umidità 18 %
Visibilità 10 Km
Il sole sorge alle ore 06:17
Il sole tramonta alle ore 19:25
| Data e Ora | Cielo e Fenomeni | T °C | DP °C | Um. % | Pres. hPa | Vis. km | Vento km/h | |
|---|---|---|---|---|---|---|---|---|
| Oggi h: 09:56 | Sereno | 23 | -2 | 18 | 1016 | 10 | NE 16.7 | |
| Oggi h: 08:56 | Sereno | 19 | -3 | 22 | 1016 | 10 | E/NE 16.7 | |
| Oggi h: 07:56 | Sereno | 14 | -3 | 30 | 1016 | 10 | N 11.1 | |
| Oggi h: 06:56 | Sereno | 11 | -3 | 37 | 1016 | 10 | E/SE 11.1 | |
| Oggi h: 05:56 | Sereno | 6 | -2 | 56 | 1016 | 10 | N 5.5 | |
| Oggi h: 04:56 | Sereno | 8 | -3 | 45 | 1017 | 10 | SE 9.3 | |
| Oggi h: 03:56 | Sereno | 16 | -4 | 24 | 1016 | 10 | E/NE 20.3 | |
| Oggi h: 02:56 | Sereno | 17 | -5 | 21 | 1016 | 10 | E/NE 20.3 | |
| Oggi h: 01:56 | Sereno | 17 | -5 | 21 | 1016 | 10 | NE 20.3 | |
| Oggi h: 00:56 | Sereno | 18 | -5 | 20 | 1017 | 10 | E/NE 20.3 | |
| Ieri h: 23:56 | Sereno | 12 | -4 | 32 | 1016 | 10 | E 9.3 | |
| Ieri h: 22:56 | Sereno | 13 | -5 | 28 | 1016 | 10 | NE 7.4 | |
| Ieri h: 21:56 | Sereno | 13 | -6 | 26 | 1016 | 10 | NO 7.4 | |
| Ieri h: 20:56 | Sereno | 14 | -6 | 24 | 1016 | 10 | N 0 | |
| Ieri h: 19:56 | Sereno | 23 | -4 | 16 | 1016 | 10 | N/NE 9.3 | |
| Ieri h: 18:56 | Sereno | 26 | -4 | 13 | 1015 | 10 | N 11.1 | |
| Ieri h: 17:56 | Sereno | 27 | -5 | 11 | 1016 | 10 | N 0 | |
| Ieri h: 16:56 | Sereno | 27 | -6 | 10 | 1016 | 10 | N 0 | |
| Ieri h: 15:56 | Sereno | 28 | -6 | 10 | 1016 | 10 | N 11.1 | |
| Ieri h: 14:56 | Sereno | 26 | -5 | 12 | 1017 | 10 | N 0 | |
| Ieri h: 13:56 | Sereno | 27 | -4 | 12 | 1018 | 10 | O/NO 16.7 | |
| Ieri h: 12:56 | Sereno | 25 | -3 | 15 | 1018 | 10 | N 5.5 | |
| Ieri h: 11:56 | Sereno | 23 | -3 | 17 | 1019 | 10 | N 5.5 | |
| Ieri h: 10:56 | Sereno | 22 | -3 | 18 | 1019 | 13 | E/NE 13 | |



